sensor_id;sensor_type;location;lat;lon;timestamp;temperature;humidity
24049;DHT22;12250;50.956;4.746;2024-03-25T00:02:00;2.40;99.90
24049;DHT22;12250;50.956;4.746;2024-03-25T00:04:26;2.40;99.90
24049;DHT22;12250;50.956;4.746;2024-03-25T00:06:52;2.40;99.90
24049;DHT22;12250;50.956;4.746;2024-03-25T00:09:18;2.40;99.90
24049;DHT22;12250;50.956;4.746;2024-03-25T00:11:44;2.50;99.90
24049;DHT22;12250;50.956;4.746;2024-03-25T00:14:10;2.40;99.90
24049;DHT22;12250;50.956;4.746;2024-03-25T00:16:36;2.40;99.90
24049;DHT22;12250;50.956;4.746;2024-03-25T00:19:02;2.40;99.90
24049;DHT22;12250;50.956;4.746;2024-03-25T00:21:28;2.40;99.90
24049;DHT22;12250;50.956;4.746;2024-03-25T00:23:53;2.40;99.90
24049;DHT22;12250;50.956;4.746;2024-03-25T00:26:22;2.40;99.90
24049;DHT22;12250;50.956;4.746;2024-03-25T00:28:48;2.30;99.90
24049;DHT22;12250;50.956;4.746;2024-03-25T00:31:14;2.50;99.90
24049;DHT22;12250;50.956;4.746;2024-03-25T00:33:40;2.50;99.90
24049;DHT22;12250;50.956;4.746;2024-03-25T00:36:05;2.50;99.90
24049;DHT22;12250;50.956;4.746;2024-03-25T00:38:31;2.50;99.90
24049;DHT22;12250;50.956;4.746;2024-03-25T00:40:57;2.50;99.90
24049;DHT22;12250;50.956;4.746;2024-03-25T00:43:23;2.50;99.90
24049;DHT22;12250;50.956;4.746;2024-03-25T00:45:49;2.60;99.90
24049;DHT22;12250;50.956;4.746;2024-03-25T00:48:14;2.50;99.90
24049;DHT22;12250;50.956;4.746;2024-03-25T00:50:40;2.50;99.90
24049;DHT22;12250;50.956;4.746;2024-03-25T00:53:06;2.50;99.90
24049;DHT22;12250;50.956;4.746;2024-03-25T00:55:33;2.40;99.90
24049;DHT22;12250;50.956;4.746;2024-03-25T00:58:02;2.40;99.90
24049;DHT22;12250;50.956;4.746;2024-03-25T01:00:28;2.40;99.90
24049;DHT22;12250;50.956;4.746;2024-03-25T01:02:54;2.40;99.90
24049;DHT22;12250;50.956;4.746;2024-03-25T01:05:19;2.40;99.90
24049;DHT22;12250;50.956;4.746;2024-03-25T01:07:45;2.40;99.90
24049;DHT22;12250;50.956;4.746;2024-03-25T01:10:11;2.30;99.90
24049;DHT22;12250;50.956;4.746;2024-03-25T01:12:36;2.30;99.90
24049;DHT22;12250;50.956;4.746;2024-03-25T01:15:02;2.40;99.90
24049;DHT22;12250;50.956;4.746;2024-03-25T01:17:28;2.30;99.90
24049;DHT22;12250;50.956;4.746;2024-03-25T01:19:54;2.30;99.90
24049;DHT22;12250;50.956;4.746;2024-03-25T01:22:19;2.30;99.90
24049;DHT22;12250;50.956;4.746;2024-03-25T01:24:45;2.30;99.90
24049;DHT22;12250;50.956;4.746;2024-03-25T01:27:10;2.20;99.90
24049;DHT22;12250;50.956;4.746;2024-03-25T01:29:36;2.20;99.90
24049;DHT22;12250;50.956;4.746;2024-03-25T01:32:02;2.10;99.90
24049;DHT22;12250;50.956;4.746;2024-03-25T01:34:30;2.00;99.90
24049;DHT22;12250;50.956;4.746;2024-03-25T01:36:55;2.00;99.90
24049;DHT22;12250;50.956;4.746;2024-03-25T01:39:21;2.10;99.90
24049;DHT22;12250;50.956;4.746;2024-03-25T01:41:47;1.90;99.90
24049;DHT22;12250;50.956;4.746;2024-03-25T01:44:13;1.90;99.90
24049;DHT22;12250;50.956;4.746;2024-03-25T01:46:39;1.90;99.90
24049;DHT22;12250;50.956;4.746;2024-03-25T01:49:05;2.00;99.90
24049;DHT22;12250;50.956;4.746;2024-03-25T01:51:32;1.90;99.90
24049;DHT22;12250;50.956;4.746;2024-03-25T01:53:59;1.90;99.90
24049;DHT22;12250;50.956;4.746;2024-03-25T01:56:25;1.90;99.90
24049;DHT22;12250;50.956;4.746;2024-03-25T01:58:52;1.90;99.90
24049;DHT22;12250;50.956;4.746;2024-03-25T02:01:19;1.90;99.90
24049;DHT22;12250;50.956;4.746;2024-03-25T02:03:45;1.90;99.90
24049;DHT22;12250;50.956;4.746;2024-03-25T02:06:17;1.90;99.90
24049;DHT22;12250;50.956;4.746;2024-03-25T02:08:47;1.90;99.90
24049;DHT22;12250;50.956;4.746;2024-03-25T02:11:14;1.90;99.90
24049;DHT22;12250;50.956;4.746;2024-03-25T02:13:40;1.80;99.90
24049;DHT22;12250;50.956;4.746;2024-03-25T02:16:06;1.70;99.90
24049;DHT22;12250;50.956;4.746;2024-03-25T02:18:32;1.70;99.90
24049;DHT22;12250;50.956;4.746;2024-03-25T02:20:58;1.70;99.90
24049;DHT22;12250;50.956;4.746;2024-03-25T02:23:25;1.80;99.90
24049;DHT22;12250;50.956;4.746;2024-03-25T02:25:52;1.70;99.90
24049;DHT22;12250;50.956;4.746;2024-03-25T02:28:18;1.70;99.90
24049;DHT22;12250;50.956;4.746;2024-03-25T02:30:43;1.70;99.90
24049;DHT22;12250;50.956;4.746;2024-03-25T02:33:09;1.70;99.90
24049;DHT22;12250;50.956;4.746;2024-03-25T02:35:35;1.70;99.90
24049;DHT22;12250;50.956;4.746;2024-03-25T02:38:01;1.70;99.90
24049;DHT22;12250;50.956;4.746;2024-03-25T02:40:29;1.60;99.90
24049;DHT22;12250;50.956;4.746;2024-03-25T02:42:55;1.60;99.90
24049;DHT22;12250;50.956;4.746;2024-03-25T02:45:21;1.60;99.90
24049;DHT22;12250;50.956;4.746;2024-03-25T02:47:47;1.60;99.90
24049;DHT22;12250;50.956;4.746;2024-03-25T02:50:12;1.50;99.90
24049;DHT22;12250;50.956;4.746;2024-03-25T02:52:38;1.50;99.90
24049;DHT22;12250;50.956;4.746;2024-03-25T02:55:04;1.50;99.90
24049;DHT22;12250;50.956;4.746;2024-03-25T02:57:30;1.50;99.90
24049;DHT22;12250;50.956;4.746;2024-03-25T02:59:56;1.50;99.90
24049;DHT22;12250;50.956;4.746;2024-03-25T03:02:21;1.40;99.90
24049;DHT22;12250;50.956;4.746;2024-03-25T03:04:47;1.40;99.90
24049;DHT22;12250;50.956;4.746;2024-03-25T03:07:13;1.40;99.90
24049;DHT22;12250;50.956;4.746;2024-03-25T03:09:38;1.50;99.90
24049;DHT22;12250;50.956;4.746;2024-03-25T03:12:04;1.50;99.90
24049;DHT22;12250;50.956;4.746;2024-03-25T03:14:30;1.50;99.90
24049;DHT22;12250;50.956;4.746;2024-03-25T03:16:56;1.50;99.90
24049;DHT22;12250;50.956;4.746;2024-03-25T03:19:26;1.50;99.90
24049;DHT22;12250;50.956;4.746;2024-03-25T03:21:52;1.50;99.90
24049;DHT22;12250;50.956;4.746;2024-03-25T03:24:18;1.50;99.90
24049;DHT22;12250;50.956;4.746;2024-03-25T03:26:44;1.50;99.90
24049;DHT22;12250;50.956;4.746;2024-03-25T03:29:10;1.50;99.90
24049;DHT22;12250;50.956;4.746;2024-03-25T03:31:36;1.40;99.90
24049;DHT22;12250;50.956;4.746;2024-03-25T03:34:02;1.40;99.90
24049;DHT22;12250;50.956;4.746;2024-03-25T03:36:28;1.30;99.90
24049;DHT22;12250;50.956;4.746;2024-03-25T03:38:54;1.30;99.90
24049;DHT22;12250;50.956;4.746;2024-03-25T03:41:20;1.20;99.90
24049;DHT22;12250;50.956;4.746;2024-03-25T03:43:45;1.30;99.90
24049;DHT22;12250;50.956;4.746;2024-03-25T03:46:11;1.20;99.90
24049;DHT22;12250;50.956;4.746;2024-03-25T03:48:37;1.30;99.90
24049;DHT22;12250;50.956;4.746;2024-03-25T03:51:07;1.30;99.90
24049;DHT22;12250;50.956;4.746;2024-03-25T03:53:33;1.30;99.90
24049;DHT22;12250;50.956;4.746;2024-03-25T03:56:01;1.30;99.90
24049;DHT22;12250;50.956;4.746;2024-03-25T03:58:33;1.30;99.90
24049;DHT22;12250;50.956;4.746;2024-03-25T04:00:59;1.40;99.90
24049;DHT22;12250;50.956;4.746;2024-03-25T04:03:25;1.40;99.90
24049;DHT22;12250;50.956;4.746;2024-03-25T04:05:51;1.40;99.90
24049;DHT22;12250;50.956;4.746;2024-03-25T04:08:17;1.50;99.90
24049;DHT22;12250;50.956;4.746;2024-03-25T04:10:44;1.50;99.90
24049;DHT22;12250;50.956;4.746;2024-03-25T04:13:10;1.50;99.90
24049;DHT22;12250;50.956;4.746;2024-03-25T04:15:40;1.50;99.90
24049;DHT22;12250;50.956;4.746;2024-03-25T04:18:06;1.50;99.90
24049;DHT22;12250;50.956;4.746;2024-03-25T04:20:42;1.50;99.90
24049;DHT22;12250;50.956;4.746;2024-03-25T04:23:08;1.50;99.90
24049;DHT22;12250;50.956;4.746;2024-03-25T04:25:34;1.60;99.90
24049;DHT22;12250;50.956;4.746;2024-03-25T04:28:00;1.60;99.90
24049;DHT22;12250;50.956;4.746;2024-03-25T04:30:26;1.60;99.90
24049;DHT22;12250;50.956;4.746;2024-03-25T04:32:52;1.60;99.90
24049;DHT22;12250;50.956;4.746;2024-03-25T04:35:17;1.60;99.90
24049;DHT22;12250;50.956;4.746;2024-03-25T04:37:43;1.70;99.90
24049;DHT22;12250;50.956;4.746;2024-03-25T04:40:09;1.60;99.90
24049;DHT22;12250;50.956;4.746;2024-03-25T04:42:35;1.60;99.90
24049;DHT22;12250;50.956;4.746;2024-03-25T04:45:02;1.70;99.90
24049;DHT22;12250;50.956;4.746;2024-03-25T04:47:27;1.60;99.90
24049;DHT22;12250;50.956;4.746;2024-03-25T04:49:53;1.60;99.90
24049;DHT22;12250;50.956;4.746;2024-03-25T04:52:19;1.60;99.90
24049;DHT22;12250;50.956;4.746;2024-03-25T04:54:49;1.70;99.90
24049;DHT22;12250;50.956;4.746;2024-03-25T04:57:15;1.60;99.90
24049;DHT22;12250;50.956;4.746;2024-03-25T04:59:41;1.60;99.90
24049;DHT22;12250;50.956;4.746;2024-03-25T05:02:06;1.60;99.90
24049;DHT22;12250;50.956;4.746;2024-03-25T05:04:32;1.60;99.90
24049;DHT22;12250;50.956;4.746;2024-03-25T05:06:58;1.60;99.90
24049;DHT22;12250;50.956;4.746;2024-03-25T05:09:23;1.70;99.90
24049;DHT22;12250;50.956;4.746;2024-03-25T05:11:49;1.70;99.90
24049;DHT22;12250;50.956;4.746;2024-03-25T05:14:15;1.60;99.90
24049;DHT22;12250;50.956;4.746;2024-03-25T05:16:40;1.60;99.90
24049;DHT22;12250;50.956;4.746;2024-03-25T05:19:06;1.50;99.90
24049;DHT22;12250;50.956;4.746;2024-03-25T05:21:32;1.40;99.90
24049;DHT22;12250;50.956;4.746;2024-03-25T05:23:58;1.60;99.90
24049;DHT22;12250;50.956;4.746;2024-03-25T05:26:24;1.60;99.90
24049;DHT22;12250;50.956;4.746;2024-03-25T05:28:54;1.50;99.90
24049;DHT22;12250;50.956;4.746;2024-03-25T05:31:19;1.50;99.90
24049;DHT22;12250;50.956;4.746;2024-03-25T05:33:45;1.50;99.90
24049;DHT22;12250;50.956;4.746;2024-03-25T05:36:11;1.40;99.90
24049;DHT22;12250;50.956;4.746;2024-03-25T05:38:36;1.50;99.90
24049;DHT22;12250;50.956;4.746;2024-03-25T05:41:02;1.50;99.90
24049;DHT22;12250;50.956;4.746;2024-03-25T05:43:28;1.50;99.90
24049;DHT22;12250;50.956;4.746;2024-03-25T05:45:54;1.50;99.90
24049;DHT22;12250;50.956;4.746;2024-03-25T05:48:20;1.50;99.90
24049;DHT22;12250;50.956;4.746;2024-03-25T05:50:46;1.60;99.90
24049;DHT22;12250;50.956;4.746;2024-03-25T05:53:21;1.60;99.90
24049;DHT22;12250;50.956;4.746;2024-03-25T05:55:48;1.60;99.90
24049;DHT22;12250;50.956;4.746;2024-03-25T05:58:13;1.60;99.90
24049;DHT22;12250;50.956;4.746;2024-03-25T06:00:39;1.70;99.90
24049;DHT22;12250;50.956;4.746;2024-03-25T06:03:05;1.80;99.90
24049;DHT22;12250;50.956;4.746;2024-03-25T06:05:30;1.90;99.90
24049;DHT22;12250;50.956;4.746;2024-03-25T06:07:56;2.00;99.90
24049;DHT22;12250;50.956;4.746;2024-03-25T06:10:22;2.10;99.90
24049;DHT22;12250;50.956;4.746;2024-03-25T06:12:47;2.20;99.90
24049;DHT22;12250;50.956;4.746;2024-03-25T06:15:13;2.30;99.90
24049;DHT22;12250;50.956;4.746;2024-03-25T06:17:39;2.60;99.90
24049;DHT22;12250;50.956;4.746;2024-03-25T06:20:05;2.70;99.90
24049;DHT22;12250;50.956;4.746;2024-03-25T06:22:31;2.90;99.90
24049;DHT22;12250;50.956;4.746;2024-03-25T06:24:56;3.00;99.90
24049;DHT22;12250;50.956;4.746;2024-03-25T06:27:22;3.10;99.90
24049;DHT22;12250;50.956;4.746;2024-03-25T06:29:48;3.40;99.90
24049;DHT22;12250;50.956;4.746;2024-03-25T06:32:13;3.50;99.90
24049;DHT22;12250;50.956;4.746;2024-03-25T06:34:57;3.80;99.90
24049;DHT22;12250;50.956;4.746;2024-03-25T06:37:27;4.10;99.90
24049;DHT22;12250;50.956;4.746;2024-03-25T06:39:52;4.40;99.90
24049;DHT22;12250;50.956;4.746;2024-03-25T06:42:18;4.50;99.90
24049;DHT22;12250;50.956;4.746;2024-03-25T06:44:44;4.70;99.90
24049;DHT22;12250;50.956;4.746;2024-03-25T06:47:15;4.80;99.90
24049;DHT22;12250;50.956;4.746;2024-03-25T06:49:40;4.90;99.90
24049;DHT22;12250;50.956;4.746;2024-03-25T06:52:06;5.10;99.90
24049;DHT22;12250;50.956;4.746;2024-03-25T06:54:32;5.30;99.90
24049;DHT22;12250;50.956;4.746;2024-03-25T06:56:57;5.50;99.90
24049;DHT22;12250;50.956;4.746;2024-03-25T06:59:23;5.50;99.90
24049;DHT22;12250;50.956;4.746;2024-03-25T07:01:49;5.70;99.90
24049;DHT22;12250;50.956;4.746;2024-03-25T07:04:14;5.80;99.90
24049;DHT22;12250;50.956;4.746;2024-03-25T07:06:40;5.90;99.90
24049;DHT22;12250;50.956;4.746;2024-03-25T07:09:06;6.00;99.90
24049;DHT22;12250;50.956;4.746;2024-03-25T07:11:31;6.10;99.90
24049;DHT22;12250;50.956;4.746;2024-03-25T07:13:57;6.30;99.90
24049;DHT22;12250;50.956;4.746;2024-03-25T07:16:23;6.50;99.90
24049;DHT22;12250;50.956;4.746;2024-03-25T07:18:48;6.80;99.90
24049;DHT22;12250;50.956;4.746;2024-03-25T07:21:14;7.30;99.90
24049;DHT22;12250;50.956;4.746;2024-03-25T07:23:40;7.90;99.90
24049;DHT22;12250;50.956;4.746;2024-03-25T07:26:05;8.00;99.90
24049;DHT22;12250;50.956;4.746;2024-03-25T07:28:31;8.20;99.90
24049;DHT22;12250;50.956;4.746;2024-03-25T07:30:57;8.50;99.90
24049;DHT22;12250;50.956;4.746;2024-03-25T07:33:23;8.70;99.90
24049;DHT22;12250;50.956;4.746;2024-03-25T07:35:48;9.00;99.90
24049;DHT22;12250;50.956;4.746;2024-03-25T07:38:14;9.50;99.90
24049;DHT22;12250;50.956;4.746;2024-03-25T07:40:40;10.30;99.90
24049;DHT22;12250;50.956;4.746;2024-03-25T07:43:05;11.20;99.90
24049;DHT22;12250;50.956;4.746;2024-03-25T07:45:31;12.50;99.90
24049;DHT22;12250;50.956;4.746;2024-03-25T07:47:56;13.30;99.90
24049;DHT22;12250;50.956;4.746;2024-03-25T07:50:22;13.70;99.90
24049;DHT22;12250;50.956;4.746;2024-03-25T07:52:48;13.70;99.90
24049;DHT22;12250;50.956;4.746;2024-03-25T07:55:13;13.10;99.90
24049;DHT22;12250;50.956;4.746;2024-03-25T07:57:40;12.60;99.90
24049;DHT22;12250;50.956;4.746;2024-03-25T08:00:06;12.50;99.90
24049;DHT22;12250;50.956;4.746;2024-03-25T08:02:34;12.50;99.90
24049;DHT22;12250;50.956;4.746;2024-03-25T08:05:00;12.70;99.90
24049;DHT22;12250;50.956;4.746;2024-03-25T08:07:25;12.90;99.90
24049;DHT22;12250;50.956;4.746;2024-03-25T08:09:51;13.20;99.90
24049;DHT22;12250;50.956;4.746;2024-03-25T08:12:17;13.30;99.90
24049;DHT22;12250;50.956;4.746;2024-03-25T08:14:42;13.90;99.90
24049;DHT22;12250;50.956;4.746;2024-03-25T08:17:09;14.00;99.90
24049;DHT22;12250;50.956;4.746;2024-03-25T08:19:34;14.50;99.90
24049;DHT22;12250;50.956;4.746;2024-03-25T08:22:00;15.30;99.90
24049;DHT22;12250;50.956;4.746;2024-03-25T08:24:26;16.10;99.90
24049;DHT22;12250;50.956;4.746;2024-03-25T08:26:51;16.50;99.90
24049;DHT22;12250;50.956;4.746;2024-03-25T08:29:18;16.80;99.90
24049;DHT22;12250;50.956;4.746;2024-03-25T08:31:44;16.90;99.90
24049;DHT22;12250;50.956;4.746;2024-03-25T08:34:09;17.20;99.90
24049;DHT22;12250;50.956;4.746;2024-03-25T08:36:35;17.60;99.90
24049;DHT22;12250;50.956;4.746;2024-03-25T08:39:01;18.10;99.50
24049;DHT22;12250;50.956;4.746;2024-03-25T08:41:26;19.00;98.90
24049;DHT22;12250;50.956;4.746;2024-03-25T08:43:52;20.20;95.80
24049;DHT22;12250;50.956;4.746;2024-03-25T08:46:18;22.20;93.40
24049;DHT22;12250;50.956;4.746;2024-03-25T08:48:43;24.20;88.20
24049;DHT22;12250;50.956;4.746;2024-03-25T08:51:09;25.00;80.40
24049;DHT22;12250;50.956;4.746;2024-03-25T08:53:35;25.80;74.00
24049;DHT22;12250;50.956;4.746;2024-03-25T08:56:00;26.50;71.90
24049;DHT22;12250;50.956;4.746;2024-03-25T08:58:26;27.00;64.40
24049;DHT22;12250;50.956;4.746;2024-03-25T09:00:51;27.00;62.90
24049;DHT22;12250;50.956;4.746;2024-03-25T09:03:17;27.30;60.80
24049;DHT22;12250;50.956;4.746;2024-03-25T09:05:43;27.20;60.50
24049;DHT22;12250;50.956;4.746;2024-03-25T09:08:08;27.00;58.60
24049;DHT22;12250;50.956;4.746;2024-03-25T09:10:38;26.70;58.30
24049;DHT22;12250;50.956;4.746;2024-03-25T09:13:22;26.00;56.40
24049;DHT22;12250;50.956;4.746;2024-03-25T09:15:51;25.40;59.60
24049;DHT22;12250;50.956;4.746;2024-03-25T09:18:17;26.20;60.00
24049;DHT22;12250;50.956;4.746;2024-03-25T09:20:44;27.40;56.10
24049;DHT22;12250;50.956;4.746;2024-03-25T09:23:09;28.00;54.00
24049;DHT22;12250;50.956;4.746;2024-03-25T09:25:35;27.90;54.70
24049;DHT22;12250;50.956;4.746;2024-03-25T09:28:01;27.70;53.40
24049;DHT22;12250;50.956;4.746;2024-03-25T09:30:28;27.30;53.10
24049;DHT22;12250;50.956;4.746;2024-03-25T09:32:54;26.90;55.00
24049;DHT22;12250;50.956;4.746;2024-03-25T09:35:19;27.80;54.30
24049;DHT22;12250;50.956;4.746;2024-03-25T09:37:45;28.60;50.60
24049;DHT22;12250;50.956;4.746;2024-03-25T09:40:11;28.50;51.30
24049;DHT22;12250;50.956;4.746;2024-03-25T09:42:47;27.80;50.00
24049;DHT22;12250;50.956;4.746;2024-03-25T09:45:16;27.50;52.20
24049;DHT22;12250;50.956;4.746;2024-03-25T09:47:46;28.40;51.70
24049;DHT22;12250;50.956;4.746;2024-03-25T09:50:14;28.10;50.10
24049;DHT22;12250;50.956;4.746;2024-03-25T09:52:49;27.10;50.70
24049;DHT22;12250;50.956;4.746;2024-03-25T09:55:16;27.30;50.20
24049;DHT22;12250;50.956;4.746;2024-03-25T09:57:45;27.60;47.80
24049;DHT22;12250;50.956;4.746;2024-03-25T10:00:11;27.80;49.00
24049;DHT22;12250;50.956;4.746;2024-03-25T10:02:39;28.30;49.20
24049;DHT22;12250;50.956;4.746;2024-03-25T10:05:06;29.10;47.10
24049;DHT22;12250;50.956;4.746;2024-03-25T10:07:32;28.90;47.10
24049;DHT22;12250;50.956;4.746;2024-03-25T10:09:58;28.90;46.60
24049;DHT22;12250;50.956;4.746;2024-03-25T10:12:24;26.60;46.30
24049;DHT22;12250;50.956;4.746;2024-03-25T10:14:50;25.90;48.90
24049;DHT22;12250;50.956;4.746;2024-03-25T10:17:16;27.20;49.70
24049;DHT22;12250;50.956;4.746;2024-03-25T10:19:42;28.30;47.10
24049;DHT22;12250;50.956;4.746;2024-03-25T10:22:08;28.40;45.70
24049;DHT22;12250;50.956;4.746;2024-03-25T10:24:42;28.60;44.90
24049;DHT22;12250;50.956;4.746;2024-03-25T10:27:18;28.90;44.10
24049;DHT22;12250;50.956;4.746;2024-03-25T10:29:48;28.50;46.40
24049;DHT22;12250;50.956;4.746;2024-03-25T10:32:14;28.80;45.80
24049;DHT22;12250;50.956;4.746;2024-03-25T10:34:40;29.10;44.50
24049;DHT22;12250;50.956;4.746;2024-03-25T10:37:10;28.60;43.40
24049;DHT22;12250;50.956;4.746;2024-03-25T10:39:40;27.80;45.30
24049;DHT22;12250;50.956;4.746;2024-03-25T10:42:13;26.90;45.30
24049;DHT22;12250;50.956;4.746;2024-03-25T10:44:40;27.00;46.30
24049;DHT22;12250;50.956;4.746;2024-03-25T10:47:06;27.00;45.60
24049;DHT22;12250;50.956;4.746;2024-03-25T10:49:48;27.20;48.10
24049;DHT22;12250;50.956;4.746;2024-03-25T10:52:15;26.90;45.70
24049;DHT22;12250;50.956;4.746;2024-03-25T10:54:47;26.20;47.70
24049;DHT22;12250;50.956;4.746;2024-03-25T10:57:13;26.10;47.20
24049;DHT22;12250;50.956;4.746;2024-03-25T10:59:40;26.10;48.90
24049;DHT22;12250;50.956;4.746;2024-03-25T11:02:08;26.10;46.60
24049;DHT22;12250;50.956;4.746;2024-03-25T11:04:34;26.00;47.60
24049;DHT22;12250;50.956;4.746;2024-03-25T11:07:15;24.60;48.60
24049;DHT22;12250;50.956;4.746;2024-03-25T11:09:42;22.90;51.30
24049;DHT22;12250;50.956;4.746;2024-03-25T11:12:12;21.70;54.10
24049;DHT22;12250;50.956;4.746;2024-03-25T11:14:39;20.90;56.50
24049;DHT22;12250;50.956;4.746;2024-03-25T11:17:15;20.70;58.20
24049;DHT22;12250;50.956;4.746;2024-03-25T11:19:41;20.70;58.30
24049;DHT22;12250;50.956;4.746;2024-03-25T11:22:09;19.70;60.60
24049;DHT22;12250;50.956;4.746;2024-03-25T11:24:35;19.30;63.10
24049;DHT22;12250;50.956;4.746;2024-03-25T11:27:08;19.20;62.30
24049;DHT22;12250;50.956;4.746;2024-03-25T11:29:34;18.60;61.50
24049;DHT22;12250;50.956;4.746;2024-03-25T11:32:03;18.20;62.80
24049;DHT22;12250;50.956;4.746;2024-03-25T11:34:29;17.40;65.60
24049;DHT22;12250;50.956;4.746;2024-03-25T11:36:55;17.10;63.00
24049;DHT22;12250;50.956;4.746;2024-03-25T11:39:24;16.80;64.90
24049;DHT22;12250;50.956;4.746;2024-03-25T11:41:54;16.90;64.70
24049;DHT22;12250;50.956;4.746;2024-03-25T11:44:20;16.90;68.10
24049;DHT22;12250;50.956;4.746;2024-03-25T11:46:48;16.60;65.80
24049;DHT22;12250;50.956;4.746;2024-03-25T11:49:16;16.30;65.20
24049;DHT22;12250;50.956;4.746;2024-03-25T11:51:45;16.40;67.90
24049;DHT22;12250;50.956;4.746;2024-03-25T11:54:12;16.50;68.40
24049;DHT22;12250;50.956;4.746;2024-03-25T11:56:38;16.40;65.80
24049;DHT22;12250;50.956;4.746;2024-03-25T11:59:04;16.20;65.10
24049;DHT22;12250;50.956;4.746;2024-03-25T12:01:31;16.20;64.00
24049;DHT22;12250;50.956;4.746;2024-03-25T12:03:57;16.00;64.10
24049;DHT22;12250;50.956;4.746;2024-03-25T12:06:22;15.90;68.20
24049;DHT22;12250;50.956;4.746;2024-03-25T12:08:48;16.00;67.20
24049;DHT22;12250;50.956;4.746;2024-03-25T12:11:32;16.20;61.90
24049;DHT22;12250;50.956;4.746;2024-03-25T12:13:59;16.10;64.60
24049;DHT22;12250;50.956;4.746;2024-03-25T12:16:25;15.90;66.10
24049;DHT22;12250;50.956;4.746;2024-03-25T12:18:51;16.10;67.70
24049;DHT22;12250;50.956;4.746;2024-03-25T12:21:19;16.30;65.00
24049;DHT22;12250;50.956;4.746;2024-03-25T12:23:45;16.40;64.40
24049;DHT22;12250;50.956;4.746;2024-03-25T12:26:12;16.60;61.20
24049;DHT22;12250;50.956;4.746;2024-03-25T12:28:39;16.50;60.20
24049;DHT22;12250;50.956;4.746;2024-03-25T12:31:11;16.40;63.30
24049;DHT22;12250;50.956;4.746;2024-03-25T12:33:42;16.30;61.80
24049;DHT22;12250;50.956;4.746;2024-03-25T12:36:09;16.20;61.90
24049;DHT22;12250;50.956;4.746;2024-03-25T12:38:34;16.10;62.50
24049;DHT22;12250;50.956;4.746;2024-03-25T12:41:08;16.10;64.80
24049;DHT22;12250;50.956;4.746;2024-03-25T12:43:35;16.20;61.60
24049;DHT22;12250;50.956;4.746;2024-03-25T12:46:01;16.30;59.80
24049;DHT22;12250;50.956;4.746;2024-03-25T12:48:29;16.50;61.50
24049;DHT22;12250;50.956;4.746;2024-03-25T12:50:54;16.50;59.00
24049;DHT22;12250;50.956;4.746;2024-03-25T12:53:20;16.30;58.90
24049;DHT22;12250;50.956;4.746;2024-03-25T12:55:46;16.30;59.00
24049;DHT22;12250;50.956;4.746;2024-03-25T12:58:12;16.30;59.70
24049;DHT22;12250;50.956;4.746;2024-03-25T13:00:38;16.30;57.40
24049;DHT22;12250;50.956;4.746;2024-03-25T13:03:08;16.50;60.60
24049;DHT22;12250;50.956;4.746;2024-03-25T13:05:34;16.60;59.10
24049;DHT22;12250;50.956;4.746;2024-03-25T13:08:01;16.30;60.00
24049;DHT22;12250;50.956;4.746;2024-03-25T13:10:28;16.30;60.70
24049;DHT22;12250;50.956;4.746;2024-03-25T13:12:55;16.40;61.70
24049;DHT22;12250;50.956;4.746;2024-03-25T13:15:21;16.10;58.70
24049;DHT22;12250;50.956;4.746;2024-03-25T13:17:46;15.80;59.00
24049;DHT22;12250;50.956;4.746;2024-03-25T13:20:12;15.70;60.40
24049;DHT22;12250;50.956;4.746;2024-03-25T13:22:39;15.50;61.90
24049;DHT22;12250;50.956;4.746;2024-03-25T13:25:06;15.40;63.80
24049;DHT22;12250;50.956;4.746;2024-03-25T13:27:32;15.60;65.20
24049;DHT22;12250;50.956;4.746;2024-03-25T13:29:58;15.90;63.30
24049;DHT22;12250;50.956;4.746;2024-03-25T13:32:23;16.00;60.10
24049;DHT22;12250;50.956;4.746;2024-03-25T13:34:50;16.00;60.90
24049;DHT22;12250;50.956;4.746;2024-03-25T13:37:16;15.70;61.20
24049;DHT22;12250;50.956;4.746;2024-03-25T13:39:41;15.70;62.80
24049;DHT22;12250;50.956;4.746;2024-03-25T13:42:07;15.60;62.40
24049;DHT22;12250;50.956;4.746;2024-03-25T13:44:33;15.80;62.60
24049;DHT22;12250;50.956;4.746;2024-03-25T13:46:59;16.10;60.00
24049;DHT22;12250;50.956;4.746;2024-03-25T13:49:24;16.30;60.90
24049;DHT22;12250;50.956;4.746;2024-03-25T13:51:57;16.60;60.60
24049;DHT22;12250;50.956;4.746;2024-03-25T13:54:26;16.80;61.50
24049;DHT22;12250;50.956;4.746;2024-03-25T13:56:52;16.80;59.40
24049;DHT22;12250;50.956;4.746;2024-03-25T13:59:18;16.90;59.20
24049;DHT22;12250;50.956;4.746;2024-03-25T14:01:44;16.90;60.10
24049;DHT22;12250;50.956;4.746;2024-03-25T14:04:10;16.70;60.00
24049;DHT22;12250;50.956;4.746;2024-03-25T14:06:36;16.50;60.90
24049;DHT22;12250;50.956;4.746;2024-03-25T14:09:02;16.20;60.40
24049;DHT22;12250;50.956;4.746;2024-03-25T14:11:31;16.10;61.70
24049;DHT22;12250;50.956;4.746;2024-03-25T14:13:57;16.00;63.20
24049;DHT22;12250;50.956;4.746;2024-03-25T14:16:23;15.90;63.70
24049;DHT22;12250;50.956;4.746;2024-03-25T14:18:48;15.80;62.60
24049;DHT22;12250;50.956;4.746;2024-03-25T14:21:14;15.70;62.00
24049;DHT22;12250;50.956;4.746;2024-03-25T14:23:40;15.60;62.10
24049;DHT22;12250;50.956;4.746;2024-03-25T14:26:18;15.30;64.30
24049;DHT22;12250;50.956;4.746;2024-03-25T14:28:43;15.30;63.50
24049;DHT22;12250;50.956;4.746;2024-03-25T14:31:09;15.40;64.50
24049;DHT22;12250;50.956;4.746;2024-03-25T14:33:34;15.50;64.60
24049;DHT22;12250;50.956;4.746;2024-03-25T14:36:00;15.40;64.40
24049;DHT22;12250;50.956;4.746;2024-03-25T14:38:26;15.50;62.60
24049;DHT22;12250;50.956;4.746;2024-03-25T14:40:51;15.50;63.10
24049;DHT22;12250;50.956;4.746;2024-03-25T14:43:18;15.60;63.80
24049;DHT22;12250;50.956;4.746;2024-03-25T14:45:45;15.60;63.00
24049;DHT22;12250;50.956;4.746;2024-03-25T14:48:11;15.60;61.70
24049;DHT22;12250;50.956;4.746;2024-03-25T14:50:37;15.40;62.30
24049;DHT22;12250;50.956;4.746;2024-03-25T14:53:03;15.30;63.90
24049;DHT22;12250;50.956;4.746;2024-03-25T14:55:30;15.50;65.20
24049;DHT22;12250;50.956;4.746;2024-03-25T14:57:56;15.60;64.50
24049;DHT22;12250;50.956;4.746;2024-03-25T15:00:22;15.80;62.70
24049;DHT22;12250;50.956;4.746;2024-03-25T15:02:51;15.80;62.20
24049;DHT22;12250;50.956;4.746;2024-03-25T15:05:17;15.80;63.80
24049;DHT22;12250;50.956;4.746;2024-03-25T15:07:44;15.80;63.00
24049;DHT22;12250;50.956;4.746;2024-03-25T15:10:09;15.90;63.30
24049;DHT22;12250;50.956;4.746;2024-03-25T15:12:36;15.70;60.40
24049;DHT22;12250;50.956;4.746;2024-03-25T15:15:05;15.60;63.60
24049;DHT22;12250;50.956;4.746;2024-03-25T15:17:33;15.50;65.50
24049;DHT22;12250;50.956;4.746;2024-03-25T15:19:59;15.30;63.10
24049;DHT22;12250;50.956;4.746;2024-03-25T15:22:25;15.40;65.60
24049;DHT22;12250;50.956;4.746;2024-03-25T15:24:51;15.40;65.00
24049;DHT22;12250;50.956;4.746;2024-03-25T15:27:16;15.30;62.80
24049;DHT22;12250;50.956;4.746;2024-03-25T15:29:42;15.00;62.20
24049;DHT22;12250;50.956;4.746;2024-03-25T15:32:08;14.90;61.60
24049;DHT22;12250;50.956;4.746;2024-03-25T15:34:33;14.60;62.80